sensor_id;sensor_type;location;lat;lon;timestamp;temperature;humidity
35445;DHT22;21562;49.476;6.086;2023-09-30T00:01:01;18.40;99.90
35445;DHT22;21562;49.476;6.086;2023-09-30T00:03:27;18.30;99.90
35445;DHT22;21562;49.476;6.086;2023-09-30T00:05:53;18.00;99.90
35445;DHT22;21562;49.476;6.086;2023-09-30T00:08:19;17.80;99.90
35445;DHT22;21562;49.476;6.086;2023-09-30T00:10:45;17.40;99.90
35445;DHT22;21562;49.476;6.086;2023-09-30T00:13:12;16.90;99.90
35445;DHT22;21562;49.476;6.086;2023-09-30T00:15:38;16.70;99.90
35445;DHT22;21562;49.476;6.086;2023-09-30T00:18:04;16.40;99.90
35445;DHT22;21562;49.476;6.086;2023-09-30T00:20:30;16.00;99.90
35445;DHT22;21562;49.476;6.086;2023-09-30T00:22:56;16.30;99.90
35445;DHT22;21562;49.476;6.086;2023-09-30T00:25:22;16.50;99.90
35445;DHT22;21562;49.476;6.086;2023-09-30T00:27:48;16.90;99.90
35445;DHT22;21562;49.476;6.086;2023-09-30T00:30:13;17.10;99.90
35445;DHT22;21562;49.476;6.086;2023-09-30T00:32:39;17.30;99.90
35445;DHT22;21562;49.476;6.086;2023-09-30T00:35:06;17.30;99.90
35445;DHT22;21562;49.476;6.086;2023-09-30T00:37:42;17.20;99.90
35445;DHT22;21562;49.476;6.086;2023-09-30T00:40:08;17.30;99.90
35445;DHT22;21562;49.476;6.086;2023-09-30T00:42:41;17.30;99.90
35445;DHT22;21562;49.476;6.086;2023-09-30T00:45:07;17.30;99.90
35445;DHT22;21562;49.476;6.086;2023-09-30T00:47:37;17.20;99.90
35445;DHT22;21562;49.476;6.086;2023-09-30T00:50:03;16.90;99.90
35445;DHT22;21562;49.476;6.086;2023-09-30T00:52:33;16.80;99.90
35445;DHT22;21562;49.476;6.086;2023-09-30T00:55:00;16.30;99.90
35445;DHT22;21562;49.476;6.086;2023-09-30T00:57:26;16.10;99.90
35445;DHT22;21562;49.476;6.086;2023-09-30T00:59:53;16.20;99.90
35445;DHT22;21562;49.476;6.086;2023-09-30T01:02:19;16.60;99.90
35445;DHT22;21562;49.476;6.086;2023-09-30T01:04:47;16.80;99.90
35445;DHT22;21562;49.476;6.086;2023-09-30T01:07:12;16.90;99.90
35445;DHT22;21562;49.476;6.086;2023-09-30T01:09:38;16.70;99.90
35445;DHT22;21562;49.476;6.086;2023-09-30T01:12:04;16.80;99.90
35445;DHT22;21562;49.476;6.086;2023-09-30T01:14:31;16.90;99.90
35445;DHT22;21562;49.476;6.086;2023-09-30T01:16:57;17.10;99.90
35445;DHT22;21562;49.476;6.086;2023-09-30T01:19:24;17.30;99.90
35445;DHT22;21562;49.476;6.086;2023-09-30T01:24:20;17.60;99.90
35445;DHT22;21562;49.476;6.086;2023-09-30T01:26:46;17.60;99.90
35445;DHT22;21562;49.476;6.086;2023-09-30T01:29:11;17.70;99.90
35445;DHT22;21562;49.476;6.086;2023-09-30T01:31:38;17.60;99.90
35445;DHT22;21562;49.476;6.086;2023-09-30T01:34:04;17.30;99.90
35445;DHT22;21562;49.476;6.086;2023-09-30T01:36:30;16.90;99.90
35445;DHT22;21562;49.476;6.086;2023-09-30T01:38:56;16.80;99.90
35445;DHT22;21562;49.476;6.086;2023-09-30T01:41:22;16.60;99.90
35445;DHT22;21562;49.476;6.086;2023-09-30T01:43:48;16.70;99.90
35445;DHT22;21562;49.476;6.086;2023-09-30T01:46:14;16.80;99.90
35445;DHT22;21562;49.476;6.086;2023-09-30T01:48:39;17.00;99.90
35445;DHT22;21562;49.476;6.086;2023-09-30T01:51:05;17.20;99.90
35445;DHT22;21562;49.476;6.086;2023-09-30T01:53:32;17.40;99.90
35445;DHT22;21562;49.476;6.086;2023-09-30T01:55:58;17.50;99.90
35445;DHT22;21562;49.476;6.086;2023-09-30T01:58:23;17.40;99.90
35445;DHT22;21562;49.476;6.086;2023-09-30T02:00:50;17.50;99.90
35445;DHT22;21562;49.476;6.086;2023-09-30T02:03:16;17.60;99.90
35445;DHT22;21562;49.476;6.086;2023-09-30T02:05:42;17.60;99.90
35445;DHT22;21562;49.476;6.086;2023-09-30T02:08:08;17.60;99.90
35445;DHT22;21562;49.476;6.086;2023-09-30T02:10:34;17.60;99.90
35445;DHT22;21562;49.476;6.086;2023-09-30T02:13:00;17.60;99.90
35445;DHT22;21562;49.476;6.086;2023-09-30T02:15:26;17.40;99.90
35445;DHT22;21562;49.476;6.086;2023-09-30T02:17:51;17.00;99.90
35445;DHT22;21562;49.476;6.086;2023-09-30T02:20:17;16.90;99.90
35445;DHT22;21562;49.476;6.086;2023-09-30T02:22:47;16.90;99.90
35445;DHT22;21562;49.476;6.086;2023-09-30T02:25:13;16.50;99.90
35445;DHT22;21562;49.476;6.086;2023-09-30T02:27:40;16.10;99.90
35445;DHT22;21562;49.476;6.086;2023-09-30T02:30:08;16.00;99.90
35445;DHT22;21562;49.476;6.086;2023-09-30T02:32:36;16.10;99.90
35445;DHT22;21562;49.476;6.086;2023-09-30T02:35:02;16.30;99.90
35445;DHT22;21562;49.476;6.086;2023-09-30T02:37:27;16.20;99.90
35445;DHT22;21562;49.476;6.086;2023-09-30T02:39:53;15.70;99.90
35445;DHT22;21562;49.476;6.086;2023-09-30T02:42:19;15.40;99.90
35445;DHT22;21562;49.476;6.086;2023-09-30T02:44:44;15.30;99.90
35445;DHT22;21562;49.476;6.086;2023-09-30T02:47:10;15.60;99.90
35445;DHT22;21562;49.476;6.086;2023-09-30T02:49:37;15.90;99.90
35445;DHT22;21562;49.476;6.086;2023-09-30T02:52:02;16.20;99.90
35445;DHT22;21562;49.476;6.086;2023-09-30T02:54:30;16.20;99.90
35445;DHT22;21562;49.476;6.086;2023-09-30T02:56:56;15.90;99.90
35445;DHT22;21562;49.476;6.086;2023-09-30T02:59:21;15.70;99.90
35445;DHT22;21562;49.476;6.086;2023-09-30T03:01:48;15.90;99.90
35445;DHT22;21562;49.476;6.086;2023-09-30T03:04:13;15.70;99.90
35445;DHT22;21562;49.476;6.086;2023-09-30T03:06:39;15.70;99.90
35445;DHT22;21562;49.476;6.086;2023-09-30T03:09:05;15.70;99.90
35445;DHT22;21562;49.476;6.086;2023-09-30T03:11:32;15.40;99.90
35445;DHT22;21562;49.476;6.086;2023-09-30T03:13:59;15.10;99.90
35445;DHT22;21562;49.476;6.086;2023-09-30T03:16:25;15.20;99.90
35445;DHT22;21562;49.476;6.086;2023-09-30T03:18:51;15.30;99.90
35445;DHT22;21562;49.476;6.086;2023-09-30T03:21:17;15.10;99.90
35445;DHT22;21562;49.476;6.086;2023-09-30T03:23:43;14.90;99.90
35445;DHT22;21562;49.476;6.086;2023-09-30T03:26:09;14.90;99.90
35445;DHT22;21562;49.476;6.086;2023-09-30T03:28:38;14.90;99.90
35445;DHT22;21562;49.476;6.086;2023-09-30T03:31:05;15.10;99.90
35445;DHT22;21562;49.476;6.086;2023-09-30T03:33:32;15.40;99.90
35445;DHT22;21562;49.476;6.086;2023-09-30T03:35:58;15.50;99.90
35445;DHT22;21562;49.476;6.086;2023-09-30T03:38:24;15.20;99.90
35445;DHT22;21562;49.476;6.086;2023-09-30T03:40:51;15.00;99.90
35445;DHT22;21562;49.476;6.086;2023-09-30T03:43:19;15.30;99.90
35445;DHT22;21562;49.476;6.086;2023-09-30T03:45:44;15.50;99.90
35445;DHT22;21562;49.476;6.086;2023-09-30T03:48:10;15.70;99.90
35445;DHT22;21562;49.476;6.086;2023-09-30T03:50:37;15.30;99.90
35445;DHT22;21562;49.476;6.086;2023-09-30T03:53:04;14.90;99.90
35445;DHT22;21562;49.476;6.086;2023-09-30T03:55:33;14.60;99.90
35445;DHT22;21562;49.476;6.086;2023-09-30T03:57:59;14.30;99.90
35445;DHT22;21562;49.476;6.086;2023-09-30T04:00:25;14.10;99.90
35445;DHT22;21562;49.476;6.086;2023-09-30T04:02:51;14.30;99.90
35445;DHT22;21562;49.476;6.086;2023-09-30T04:05:24;14.60;99.90
35445;DHT22;21562;49.476;6.086;2023-09-30T04:07:56;14.50;99.90
35445;DHT22;21562;49.476;6.086;2023-09-30T04:10:21;14.20;99.90
35445;DHT22;21562;49.476;6.086;2023-09-30T04:12:51;14.00;99.90
35445;DHT22;21562;49.476;6.086;2023-09-30T04:15:17;14.10;99.90
35445;DHT22;21562;49.476;6.086;2023-09-30T04:17:43;14.20;99.90
35445;DHT22;21562;49.476;6.086;2023-09-30T04:20:09;14.30;99.90
35445;DHT22;21562;49.476;6.086;2023-09-30T04:22:36;14.50;99.90
35445;DHT22;21562;49.476;6.086;2023-09-30T04:25:03;14.40;99.90
35445;DHT22;21562;49.476;6.086;2023-09-30T04:27:34;14.00;99.90
35445;DHT22;21562;49.476;6.086;2023-09-30T04:29:59;14.10;99.90
35445;DHT22;21562;49.476;6.086;2023-09-30T04:32:25;14.30;99.90
35445;DHT22;21562;49.476;6.086;2023-09-30T04:34:53;14.60;99.90
35445;DHT22;21562;49.476;6.086;2023-09-30T04:37:18;15.00;99.90
35445;DHT22;21562;49.476;6.086;2023-09-30T04:39:44;15.20;99.90
35445;DHT22;21562;49.476;6.086;2023-09-30T04:42:10;15.30;99.90
35445;DHT22;21562;49.476;6.086;2023-09-30T04:44:37;15.50;99.90
35445;DHT22;21562;49.476;6.086;2023-09-30T04:47:04;15.60;99.90
35445;DHT22;21562;49.476;6.086;2023-09-30T04:49:30;15.70;99.90
35445;DHT22;21562;49.476;6.086;2023-09-30T04:51:56;15.40;99.90
35445;DHT22;21562;49.476;6.086;2023-09-30T04:54:22;15.20;99.90
35445;DHT22;21562;49.476;6.086;2023-09-30T04:56:47;14.70;99.90
35445;DHT22;21562;49.476;6.086;2023-09-30T04:59:13;14.10;99.90
35445;DHT22;21562;49.476;6.086;2023-09-30T05:01:39;13.70;99.90
35445;DHT22;21562;49.476;6.086;2023-09-30T05:04:05;13.80;99.90
35445;DHT22;21562;49.476;6.086;2023-09-30T05:06:31;13.90;99.90
35445;DHT22;21562;49.476;6.086;2023-09-30T05:08:58;14.00;99.90
35445;DHT22;21562;49.476;6.086;2023-09-30T05:11:24;14.00;99.90
35445;DHT22;21562;49.476;6.086;2023-09-30T05:13:50;13.70;99.90
35445;DHT22;21562;49.476;6.086;2023-09-30T05:16:17;13.60;99.90
35445;DHT22;21562;49.476;6.086;2023-09-30T05:18:43;13.30;99.90
35445;DHT22;21562;49.476;6.086;2023-09-30T05:21:09;13.10;99.90
35445;DHT22;21562;49.476;6.086;2023-09-30T05:23:36;13.10;99.90
35445;DHT22;21562;49.476;6.086;2023-09-30T05:26:02;13.30;99.90
35445;DHT22;21562;49.476;6.086;2023-09-30T05:28:28;13.40;99.90
35445;DHT22;21562;49.476;6.086;2023-09-30T05:30:53;13.30;99.90
35445;DHT22;21562;49.476;6.086;2023-09-30T05:33:19;13.40;99.90
35445;DHT22;21562;49.476;6.086;2023-09-30T05:35:45;13.60;99.90
35445;DHT22;21562;49.476;6.086;2023-09-30T05:38:11;13.90;99.90
35445;DHT22;21562;49.476;6.086;2023-09-30T05:40:38;14.20;99.90
35445;DHT22;21562;49.476;6.086;2023-09-30T05:43:04;14.50;99.90
35445;DHT22;21562;49.476;6.086;2023-09-30T05:45:31;14.80;99.90
35445;DHT22;21562;49.476;6.086;2023-09-30T05:48:02;14.80;99.90
35445;DHT22;21562;49.476;6.086;2023-09-30T05:50:28;14.80;99.90
35445;DHT22;21562;49.476;6.086;2023-09-30T05:52:55;14.60;99.90
35445;DHT22;21562;49.476;6.086;2023-09-30T05:55:21;14.50;99.90
35445;DHT22;21562;49.476;6.086;2023-09-30T05:57:50;14.40;99.90
35445;DHT22;21562;49.476;6.086;2023-09-30T06:00:18;14.30;99.90
35445;DHT22;21562;49.476;6.086;2023-09-30T06:02:48;14.50;99.90
35445;DHT22;21562;49.476;6.086;2023-09-30T06:05:14;14.80;99.90
35445;DHT22;21562;49.476;6.086;2023-09-30T06:07:47;15.10;99.90
35445;DHT22;21562;49.476;6.086;2023-09-30T06:10:13;15.00;99.90
35445;DHT22;21562;49.476;6.086;2023-09-30T06:12:48;15.00;99.90
35445;DHT22;21562;49.476;6.086;2023-09-30T06:15:17;15.20;99.90
35445;DHT22;21562;49.476;6.086;2023-09-30T06:17:49;15.30;99.90
35445;DHT22;21562;49.476;6.086;2023-09-30T06:20:15;15.20;99.90
35445;DHT22;21562;49.476;6.086;2023-09-30T06:22:46;15.10;99.90
35445;DHT22;21562;49.476;6.086;2023-09-30T06:25:15;14.80;99.90
35445;DHT22;21562;49.476;6.086;2023-09-30T06:27:45;14.20;99.90
35445;DHT22;21562;49.476;6.086;2023-09-30T06:30:12;14.00;99.90
35445;DHT22;21562;49.476;6.086;2023-09-30T06:32:39;14.00;99.90
35445;DHT22;21562;49.476;6.086;2023-09-30T06:35:06;14.10;99.90
35445;DHT22;21562;49.476;6.086;2023-09-30T06:37:35;14.30;99.90
35445;DHT22;21562;49.476;6.086;2023-09-30T06:40:00;14.50;99.90
35445;DHT22;21562;49.476;6.086;2023-09-30T06:42:29;14.60;99.90
35445;DHT22;21562;49.476;6.086;2023-09-30T06:44:55;14.70;99.90
35445;DHT22;21562;49.476;6.086;2023-09-30T06:47:20;14.80;99.90
35445;DHT22;21562;49.476;6.086;2023-09-30T06:49:47;14.80;99.90
35445;DHT22;21562;49.476;6.086;2023-09-30T06:52:13;14.80;99.90
35445;DHT22;21562;49.476;6.086;2023-09-30T06:54:39;15.00;99.90
35445;DHT22;21562;49.476;6.086;2023-09-30T06:57:04;15.10;99.90
35445;DHT22;21562;49.476;6.086;2023-09-30T06:59:32;15.10;99.90
35445;DHT22;21562;49.476;6.086;2023-09-30T07:01:57;15.10;99.90
35445;DHT22;21562;49.476;6.086;2023-09-30T07:04:24;15.30;99.90
35445;DHT22;21562;49.476;6.086;2023-09-30T07:06:52;15.50;99.90
35445;DHT22;21562;49.476;6.086;2023-09-30T07:09:18;15.50;99.90
35445;DHT22;21562;49.476;6.086;2023-09-30T07:11:45;15.60;99.90
35445;DHT22;21562;49.476;6.086;2023-09-30T07:14:11;15.90;99.90
35445;DHT22;21562;49.476;6.086;2023-09-30T07:16:37;16.30;99.90
35445;DHT22;21562;49.476;6.086;2023-09-30T07:19:03;16.40;99.90
35445;DHT22;21562;49.476;6.086;2023-09-30T07:21:29;16.30;99.90
35445;DHT22;21562;49.476;6.086;2023-09-30T07:23:54;16.50;99.90
35445;DHT22;21562;49.476;6.086;2023-09-30T07:26:26;16.60;99.90
35445;DHT22;21562;49.476;6.086;2023-09-30T07:28:53;16.70;99.90
35445;DHT22;21562;49.476;6.086;2023-09-30T07:31:19;16.80;99.90
35445;DHT22;21562;49.476;6.086;2023-09-30T07:33:45;16.90;99.90
35445;DHT22;21562;49.476;6.086;2023-09-30T07:36:13;17.10;99.90
35445;DHT22;21562;49.476;6.086;2023-09-30T07:38:39;17.20;99.90
35445;DHT22;21562;49.476;6.086;2023-09-30T07:41:05;17.30;99.90
35445;DHT22;21562;49.476;6.086;2023-09-30T07:43:31;17.50;99.90
35445;DHT22;21562;49.476;6.086;2023-09-30T07:45:57;17.50;99.90
35445;DHT22;21562;49.476;6.086;2023-09-30T07:48:22;17.40;99.90
35445;DHT22;21562;49.476;6.086;2023-09-30T07:50:48;17.40;99.90
35445;DHT22;21562;49.476;6.086;2023-09-30T07:53:14;17.50;99.90
35445;DHT22;21562;49.476;6.086;2023-09-30T07:55:39;18.50;99.90
35445;DHT22;21562;49.476;6.086;2023-09-30T07:58:05;19.30;99.90
35445;DHT22;21562;49.476;6.086;2023-09-30T08:00:33;20.00;99.90
35445;DHT22;21562;49.476;6.086;2023-09-30T08:02:59;20.60;99.90
35445;DHT22;21562;49.476;6.086;2023-09-30T08:05:26;21.00;99.90
35445;DHT22;21562;49.476;6.086;2023-09-30T08:07:52;21.30;99.90
35445;DHT22;21562;49.476;6.086;2023-09-30T08:10:17;21.50;99.90
35445;DHT22;21562;49.476;6.086;2023-09-30T08:12:43;21.60;99.90
35445;DHT22;21562;49.476;6.086;2023-09-30T08:15:15;21.90;99.90
35445;DHT22;21562;49.476;6.086;2023-09-30T08:17:40;22.10;99.90
35445;DHT22;21562;49.476;6.086;2023-09-30T08:20:07;22.10;99.90
35445;DHT22;21562;49.476;6.086;2023-09-30T08:22:34;22.30;99.90
35445;DHT22;21562;49.476;6.086;2023-09-30T08:24:59;22.50;99.90
35445;DHT22;21562;49.476;6.086;2023-09-30T08:27:25;22.70;99.90
35445;DHT22;21562;49.476;6.086;2023-09-30T08:29:51;23.00;99.90
35445;DHT22;21562;49.476;6.086;2023-09-30T08:32:16;23.10;99.90
35445;DHT22;21562;49.476;6.086;2023-09-30T08:34:42;22.70;99.90
35445;DHT22;21562;49.476;6.086;2023-09-30T08:37:07;21.90;99.90
35445;DHT22;21562;49.476;6.086;2023-09-30T08:39:38;21.40;99.90
35445;DHT22;21562;49.476;6.086;2023-09-30T08:42:08;21.50;99.90
35445;DHT22;21562;49.476;6.086;2023-09-30T08:44:35;22.10;99.90
35445;DHT22;21562;49.476;6.086;2023-09-30T08:47:01;22.70;99.90
35445;DHT22;21562;49.476;6.086;2023-09-30T08:49:29;23.00;99.90
35445;DHT22;21562;49.476;6.086;2023-09-30T08:51:55;23.20;99.90
35445;DHT22;21562;49.476;6.086;2023-09-30T08:54:23;23.40;99.90
35445;DHT22;21562;49.476;6.086;2023-09-30T08:56:50;23.70;99.90
35445;DHT22;21562;49.476;6.086;2023-09-30T08:59:16;24.00;99.90
35445;DHT22;21562;49.476;6.086;2023-09-30T09:01:42;24.20;99.90
35445;DHT22;21562;49.476;6.086;2023-09-30T09:04:08;23.70;99.90
35445;DHT22;21562;49.476;6.086;2023-09-30T09:06:34;23.80;99.90
35445;DHT22;21562;49.476;6.086;2023-09-30T09:10:12;24.00;99.90
35445;DHT22;21562;49.476;6.086;2023-09-30T09:12:41;24.30;99.90
35445;DHT22;21562;49.476;6.086;2023-09-30T09:15:19;24.40;99.90
35445;DHT22;21562;49.476;6.086;2023-09-30T09:17:46;24.40;99.90
35445;DHT22;21562;49.476;6.086;2023-09-30T09:20:20;24.40;99.90
35445;DHT22;21562;49.476;6.086;2023-09-30T09:22:47;24.40;99.90
35445;DHT22;21562;49.476;6.086;2023-09-30T09:25:13;24.20;99.90
35445;DHT22;21562;49.476;6.086;2023-09-30T09:27:39;24.00;99.90
35445;DHT22;21562;49.476;6.086;2023-09-30T09:30:34;24.30;99.90
35445;DHT22;21562;49.476;6.086;2023-09-30T09:33:05;24.80;99.90
35445;DHT22;21562;49.476;6.086;2023-09-30T09:35:33;24.70;99.90
35445;DHT22;21562;49.476;6.086;2023-09-30T09:38:07;24.90;99.90
35445;DHT22;21562;49.476;6.086;2023-09-30T09:40:38;24.90;99.90
35445;DHT22;21562;49.476;6.086;2023-09-30T09:43:06;25.00;99.90
35445;DHT22;21562;49.476;6.086;2023-09-30T09:45:36;25.10;99.90
35445;DHT22;21562;49.476;6.086;2023-09-30T09:48:04;25.10;99.90
35445;DHT22;21562;49.476;6.086;2023-09-30T09:50:33;25.30;99.90
35445;DHT22;21562;49.476;6.086;2023-09-30T09:53:02;25.30;99.90
35445;DHT22;21562;49.476;6.086;2023-09-30T09:55:29;24.90;99.90
35445;DHT22;21562;49.476;6.086;2023-09-30T09:57:56;24.70;99.90
35445;DHT22;21562;49.476;6.086;2023-09-30T10:00:25;23.00;99.90
35445;DHT22;21562;49.476;6.086;2023-09-30T10:02:51;22.80;99.90
35445;DHT22;21562;49.476;6.086;2023-09-30T10:05:18;23.00;99.90
35445;DHT22;21562;49.476;6.086;2023-09-30T10:10:16;23.10;99.90
35445;DHT22;21562;49.476;6.086;2023-09-30T10:12:42;23.30;99.90
35445;DHT22;21562;49.476;6.086;2023-09-30T10:20:39;23.60;99.90
35445;DHT22;21562;49.476;6.086;2023-09-30T10:23:26;23.50;99.90
35445;DHT22;21562;49.476;6.086;2023-09-30T10:26:14;23.40;99.90
35445;DHT22;21562;49.476;6.086;2023-09-30T10:28:44;23.30;99.90
35445;DHT22;21562;49.476;6.086;2023-09-30T10:31:20;23.40;99.90
35445;DHT22;21562;49.476;6.086;2023-09-30T10:36:31;23.50;99.90
35445;DHT22;21562;49.476;6.086;2023-09-30T10:39:00;23.50;99.90
35445;DHT22;21562;49.476;6.086;2023-09-30T10:46:52;24.00;99.90
35445;DHT22;21562;49.476;6.086;2023-09-30T10:51:54;23.70;99.90
35445;DHT22;21562;49.476;6.086;2023-09-30T10:54:31;22.90;99.90
35445;DHT22;21562;49.476;6.086;2023-09-30T10:56:57;22.30;99.90
35445;DHT22;21562;49.476;6.086;2023-09-30T10:59:30;21.40;99.90
35445;DHT22;21562;49.476;6.086;2023-09-30T11:01:56;21.00;99.90
35445;DHT22;21562;49.476;6.086;2023-09-30T11:04:22;21.00;99.90
35445;DHT22;21562;49.476;6.086;2023-09-30T11:06:48;21.60;99.90
35445;DHT22;21562;49.476;6.086;2023-09-30T11:09:22;22.10;99.90
35445;DHT22;21562;49.476;6.086;2023-09-30T11:11:49;22.30;99.90
35445;DHT22;21562;49.476;6.086;2023-09-30T11:14:27;22.90;99.90
35445;DHT22;21562;49.476;6.086;2023-09-30T11:16:56;23.30;99.90
35445;DHT22;21562;49.476;6.086;2023-09-30T11:19:22;23.60;99.90
35445;DHT22;21562;49.476;6.086;2023-09-30T11:21:52;23.60;99.90
35445;DHT22;21562;49.476;6.086;2023-09-30T11:24:18;23.70;99.90
35445;DHT22;21562;49.476;6.086;2023-09-30T11:26:45;23.50;99.90
35445;DHT22;21562;49.476;6.086;2023-09-30T11:29:15;23.60;99.90
35445;DHT22;21562;49.476;6.086;2023-09-30T11:31:46;23.50;99.90
35445;DHT22;21562;49.476;6.086;2023-09-30T11:34:12;23.70;99.90
35445;DHT22;21562;49.476;6.086;2023-09-30T11:36:40;23.80;99.90
35445;DHT22;21562;49.476;6.086;2023-09-30T11:39:10;23.70;99.90
35445;DHT22;21562;49.476;6.086;2023-09-30T11:41:41;23.80;99.90
35445;DHT22;21562;49.476;6.086;2023-09-30T11:44:10;23.80;99.90
35445;DHT22;21562;49.476;6.086;2023-09-30T11:46:58;23.60;99.90
35445;DHT22;21562;49.476;6.086;2023-09-30T11:49:30;23.50;99.90
35445;DHT22;21562;49.476;6.086;2023-09-30T11:51:57;23.60;99.90
35445;DHT22;21562;49.476;6.086;2023-09-30T11:54:30;23.70;99.90
35445;DHT22;21562;49.476;6.086;2023-09-30T11:56:57;23.10;99.90
35445;DHT22;21562;49.476;6.086;2023-09-30T11:59:24;21.80;99.90
35445;DHT22;21562;49.476;6.086;2023-09-30T12:01:50;21.80;99.90
35445;DHT22;21562;49.476;6.086;2023-09-30T12:04:17;22.20;99.90
35445;DHT22;21562;49.476;6.086;2023-09-30T12:06:45;22.70;99.90
35445;DHT22;21562;49.476;6.086;2023-09-30T12:09:12;23.20;99.90
35445;DHT22;21562;49.476;6.086;2023-09-30T12:11:41;23.80;99.90
35445;DHT22;21562;49.476;6.086;2023-09-30T12:14:10;24.30;99.90
35445;DHT22;21562;49.476;6.086;2023-09-30T12:16:36;24.60;99.90
35445;DHT22;21562;49.476;6.086;2023-09-30T12:19:01;24.90;99.90
35445;DHT22;21562;49.476;6.086;2023-09-30T12:21:27;25.10;99.90
35445;DHT22;21562;49.476;6.086;2023-09-30T12:23:54;25.00;99.90
35445;DHT22;21562;49.476;6.086;2023-09-30T12:26:19;24.80;99.90
35445;DHT22;21562;49.476;6.086;2023-09-30T12:28:45;25.00;99.90
35445;DHT22;21562;49.476;6.086;2023-09-30T12:31:11;25.20;99.90
35445;DHT22;21562;49.476;6.086;2023-09-30T12:33:37;25.30;99.90
35445;DHT22;21562;49.476;6.086;2023-09-30T12:36:03;25.10;99.90
35445;DHT22;21562;49.476;6.086;2023-09-30T12:38:29;25.20;99.90
35445;DHT22;21562;49.476;6.086;2023-09-30T12:40:55;24.60;99.90
35445;DHT22;21562;49.476;6.086;2023-09-30T12:43:21;22.30;99.90
35445;DHT22;21562;49.476;6.086;2023-09-30T12:45:47;21.90;99.90
35445;DHT22;21562;49.476;6.086;2023-09-30T12:48:14;22.50;99.90
35445;DHT22;21562;49.476;6.086;2023-09-30T12:50:41;22.40;99.90
35445;DHT22;21562;49.476;6.086;2023-09-30T12:53:06;22.50;99.90
35445;DHT22;21562;49.476;6.086;2023-09-30T12:55:32;23.20;99.90
35445;DHT22;21562;49.476;6.086;2023-09-30T12:57:58;24.20;99.90
35445;DHT22;21562;49.476;6.086;2023-09-30T13:00:25;24.10;99.90
35445;DHT22;21562;49.476;6.086;2023-09-30T13:02:52;24.40;99.90
35445;DHT22;21562;49.476;6.086;2023-09-30T13:05:17;24.90;99.90
35445;DHT22;21562;49.476;6.086;2023-09-30T13:07:43;25.20;99.90
35445;DHT22;21562;49.476;6.086;2023-09-30T13:10:09;24.20;99.90
35445;DHT22;21562;49.476;6.086;2023-09-30T13:12:35;24.10;99.90
35445;DHT22;21562;49.476;6.086;2023-09-30T13:15:01;24.60;99.90
35445;DHT22;21562;49.476;6.086;2023-09-30T13:17:27;24.70;99.90
35445;DHT22;21562;49.476;6.086;2023-09-30T13:19:54;24.80;99.50
35445;DHT22;21562;49.476;6.086;2023-09-30T13:22:20;25.20;99.90
35445;DHT22;21562;49.476;6.086;2023-09-30T13:24:46;25.60;99.00
35445;DHT22;21562;49.476;6.086;2023-09-30T13:27:12;25.80;99.20
35445;DHT22;21562;49.476;6.086;2023-09-30T13:29:39;26.20;99.30
35445;DHT22;21562;49.476;6.086;2023-09-30T13:32:06;24.90;99.50
35445;DHT22;21562;49.476;6.086;2023-09-30T13:34:32;24.50;99.90
35445;DHT22;21562;49.476;6.086;2023-09-30T13:36:57;24.50;99.90
35445;DHT22;21562;49.476;6.086;2023-09-30T13:39:23;24.50;99.90
35445;DHT22;21562;49.476;6.086;2023-09-30T13:41:50;24.70;99.90
35445;DHT22;21562;49.476;6.086;2023-09-30T13:44:16;24.70;99.40
35445;DHT22;21562;49.476;6.086;2023-09-30T13:46:41;24.80;99.70
35445;DHT22;21562;49.476;6.086;2023-09-30T13:49:08;25.10;99.90
35445;DHT22;21562;49.476;6.086;2023-09-30T13:51:33;25.10;99.70
35445;DHT22;21562;49.476;6.086;2023-09-30T13:53:59;25.30;99.20
35445;DHT22;21562;49.476;6.086;2023-09-30T13:56:25;25.00;99.00
35445;DHT22;21562;49.476;6.086;2023-09-30T13:58:50;25.00;99.80
35445;DHT22;21562;49.476;6.086;2023-09-30T14:01:17;25.00;99.90
35445;DHT22;21562;49.476;6.086;2023-09-30T14:03:45;25.20;99.00
35445;DHT22;21562;49.476;6.086;2023-09-30T14:06:13;25.10;99.70
35445;DHT22;21562;49.476;6.086;2023-09-30T14:08:40;25.30;99.40
35445;DHT22;21562;49.476;6.086;2023-09-30T14:11:08;24.20;99.80
35445;DHT22;21562;49.476;6.086;2023-09-30T14:13:34;23.40;99.90
35445;DHT22;21562;49.476;6.086;2023-09-30T14:16:01;23.80;99.90
35445;DHT22;21562;49.476;6.086;2023-09-30T14:18:26;23.80;99.90
35445;DHT22;21562;49.476;6.086;2023-09-30T14:20:52;24.00;99.90
35445;DHT22;21562;49.476;6.086;2023-09-30T14:23:18;24.10;99.90
35445;DHT22;21562;49.476;6.086;2023-09-30T14:25:44;24.20;99.90
35445;DHT22;21562;49.476;6.086;2023-09-30T14:28:10;24.40;99.90
35445;DHT22;21562;49.476;6.086;2023-09-30T14:30:36;24.70;99.90
35445;DHT22;21562;49.476;6.086;2023-09-30T14:33:01;24.70;99.90
35445;DHT22;21562;49.476;6.086;2023-09-30T14:35:28;24.80;99.40
35445;DHT22;21562;49.476;6.086;2023-09-30T14:37:54;24.80;99.30
35445;DHT22;21562;49.476;6.086;2023-09-30T14:40:20;25.00;99.20
35445;DHT22;21562;49.476;6.086;2023-09-30T14:42:46;25.40;99.40
35445;DHT22;21562;49.476;6.086;2023-09-30T14:45:11;25.20;98.30
35445;DHT22;21562;49.476;6.086;2023-09-30T14:47:37;25.00;98.70
35445;DHT22;21562;49.476;6.086;2023-09-30T14:50:06;25.40;99.40
35445;DHT22;21562;49.476;6.086;2023-09-30T14:52:32;25.60;98.80
35445;DHT22;21562;49.476;6.086;2023-09-30T14:54:58;25.80;97.90
35445;DHT22;21562;49.476;6.086;2023-09-30T14:57:24;25.70;97.30
35445;DHT22;21562;49.476;6.086;2023-09-30T14:59:50;25.20;97.90
35445;DHT22;21562;49.476;6.086;2023-09-30T15:02:16;25.50;98.00
35445;DHT22;21562;49.476;6.086;2023-09-30T15:04:42;25.60;98.00
35445;DHT22;21562;49.476;6.086;2023-09-30T15:07:07;26.00;98.30
35445;DHT22;21562;49.476;6.086;2023-09-30T15:09:33;26.00;96.80
35445;DHT22;21562;49.476;6.086;2023-09-30T15:11:59;26.30;97.40
35445;DHT22;21562;49.476;6.086;2023-09-30T15:14:24;26.30;98.20
35445;DHT22;21562;49.476;6.086;2023-09-30T15:16:50;26.40;98.10
35445;DHT22;21562;49.476;6.086;2023-09-30T15:19:16;26.50;98.40
35445;DHT22;21562;49.476;6.086;2023-09-30T15:21:41;26.60;97.90
35445;DHT22;21562;49.476;6.086;2023-09-30T15:24:07;26.20;96.30
35445;DHT22;21562;49.476;6.086;2023-09-30T15:26:33;25.40;96.50
35445;DHT22;21562;49.476;6.086;2023-09-30T15:29:00;25.20;97.00
35445;DHT22;21562;49.476;6.086;2023-09-30T15:31:29;24.70;96.90
35445;DHT22;21562;49.476;6.086;2023-09-30T15:33:58;24.80;97.50
35445;DHT22;21562;49.476;6.086;2023-09-30T15:36:24;24.40;99.30
35445;DHT22;21562;49.476;6.086;2023-09-30T15:38:51;24.30;99.20
35445;DHT22;21562;49.476;6.086;2023-09-30T15:41:20;24.60;99.30
35445;DHT22;21562;49.476;6.086;2023-09-30T15:43:49;24.90;98.60
35445;DHT22;21562;49.476;6.086;2023-09-30T15:46:14;25.20;98.60
35445;DHT22;21562;49.476;6.086;2023-09-30T15:48:40;25.20;99.40
35445;DHT22;21562;49.476;6.086;2023-09-30T15:51:06;24.40;98.20